Weather observations for the past three days for
Metlakatla, Metlakatla Seaplane Base
Imperial (Metric)
Date Time (akdt) Wind (mph) Vis. (mi.) Weather Sky Cond. Temperature (ºF) Relative Humidity Wind Chill (°F) Heat Index (°F) Pressure Precipitation (in)
Air Dwpt 6 hour altimeter (in) sea level (mb) 1 hr 3 hr 6 hr
Max. Min.
05 10:56 SW 8 10.00 Fair CLR 59 46 62% 29.96 1013.6
05 09:56 Calm 10.00 Fair CLR 55.9 48 60.1 48 75% 29.95 1013.2
05 08:56 SW 7 10.00 Fair CLR 55.9 48 75% 29.94 1012.8
05 07:56 SW 7 10.00 Fair CLR 51.1 46 83% 29.92 1012.4
05 06:56 E 3 10.00 Fair CLR 54 46 75% 29.92 1012.3
05 05:56 S 3 10.00 Fair CLR 51.1 46 83% 29.9 1011.7
05 04:56 Calm 10.00 Fair CLR 48 44.1 86% 29.88 1011.0
05 03:56 Calm 10.00 Fair CLR 48 45 57.9 48 89% 29.88 1011.0
05 02:56 Calm 10.00 Fair CLR 52 46 80% 29.88 1010.8
05 01:56 Calm 10.00 Fair CLR 53.1 46 77% 29.88 1010.8
05 00:56 Calm 10.00 Fair CLR 55 46 72% 29.87 1010.5
04 23:56 Calm 10.00 Fair CLR 53.1 46.9 80% 29.86 1010.4
04 22:56 Calm 10.00 Fair CLR 55 48.9 80% 29.87 1010.6
04 21:56 SE 3 10.00 Fair CLR 57 46 68 55.9 67% 29.87 1010.4
04 20:56 NE 3 10.00 Fair CLR 57.9 50 75% 29.87 1010.4
04 19:56 NE 3 10.00 Fair CLR 61 46.9 60% 29.87 1010.5
04 18:56 Calm 10.00 Fair CLR 64 46.9 54% 29.87 1010.6
04 17:56 W 6 10.00 Fair CLR 66 46 49% 29.88 1011.1
04 16:56 Calm 10.00 Fair CLR 66 46 49% 29.9 1011.5
04 15:56 N 6 10.00 Fair CLR 64 46.9 66.9 53.1 54% 29.91 1012.1
04 14:56 SW 5 10.00 Fair CLR 61 46.9 60% 29.94 1012.9
04 13:56 Vrbl 3 10.00 Fair CLR 64.9 46.9 52% 29.95 1013.3
04 12:56 Calm 10.00 Fair CLR 62.1 46.9 58% 29.98 1014.2
04 11:56 N 7 10.00 Fair CLR 55.9 46 70% 29.99 1014.7
04 10:56 NW 13 10.00 Fair CLR 55 46 72% 30 1015.1
04 09:56 NW 12 10.00 Fair CLR 54 45 54 50 72% 30.01 1015.2
04 07:56 N 10 10.00 Fair CLR 54 44.1 69% 30.04 1016.5
04 06:56 N 8 10.00 Fair CLR 52 44.1 75% 30.05 1016.8
04 05:56 N 15 10.00 Fair CLR 52 44.1 75% 30.06 1017.0
04 04:56 N 14 10.00 Fair CLR 51.1 45 80% 30.07 1017.5
04 03:56 N 14 10.00 Fair CLR 52 45 57 52 77% 30.09 1017.9
04 02:56 N 9 10.00 Fair CLR 53.1 45 74% 30.11 1018.6
04 01:56 N 8 10.00 Fair CLR 54 45 72% 30.13 1019.2
04 00:56 N 13 10.00 Fair CLR 55 45 69% 30.14 1019.7
03 23:56 NW 9 10.00 Fair CLR 54 46 75% 30.15 1020.2
03 22:56 N 12 10.00 Fair CLR 55 46 72% 30.16 1020.3
03 21:56 N 10 10.00 Fair CLR 55 46 59 54 72% 30.17 1020.7
03 20:56 NW 14 10.00 Fair CLR 55 46 72% 30.18 1020.9
03 19:56 N 12 10.00 Fair CLR 55.9 45 67% 30.18 1021.0
03 18:56 NW 12 10.00 Fair CLR 59 44.1 58% 30.18 1021.2
03 17:56 N 8 10.00 Fair CLR 57 45 64% 30.2 1021.9
03 16:56 N 13 10.00 Fair CLR 55.9 45 67% 30.21 1022.2
03 15:56 N 8 10.00 Fair CLR 55.9 44.1 55.9 50 65% 30.24 1023.0
03 14:56 NW 6 10.00 Fair CLR 55 44.1 67% 30.25 1023.6
03 13:56 NW 18 G 22 10.00 Fair CLR 55 43 64% 30.26 1023.9
03 12:56 NW 10 10.00 Fair CLR 55 44.1 67% 30.27 1024.0
03 11:56 NW 13 10.00 Fair CLR 53.1 45 74% 30.28 1024.4
03 10:56 NW 12 10.00 Fair CLR 52 44.1 75% 30.28 1024.4
03 09:56 NW 14 10.00 Fair CLR 50 45 51.1 48 83% 45 30.28 1024.5
03 08:56 NW 10 10.00 Fair CLR 48.9 45 86% 45 30.3 1025.1
03 07:56 NW 13 10.00 Fair CLR 48.9 44.1 83% 44 30.3 1025.2
03 06:56 N 14 10.00 Fair CLR 48 44.1 86% 43 30.3 1025.1
03 05:56 N 13 10.00 Fair CLR 48.9 45 86% 44 30.29 1024.8
03 04:56 NW 13 10.00 Mostly Cloudy BKN014 48 45 89% 43 30.31 1025.3
03 03:56 N 10 10.00 Mostly Cloudy BKN014 48.9 45 51.1 48.9 86% 45 30.31 1025.5
03 02:56 NW 15 10.00 Fair CLR 48.9 45 86% 44 30.31 1025.6
03 01:56 N 14 10.00 Overcast OVC020 50 46 86% 45 30.31 1025.6
03 00:56 N 9 10.00 Mostly Cloudy BKN022 50 46 86% 47 30.31 1025.5
02 23:56 NW 8 10.00 Partly Cloudy SCT022 50 46 86% 47 30.31 1025.3
02 22:56 N 9 10.00 Fair CLR 51.1 46 83% 30.3 1025.2
02 21:56 N 7 10.00 Partly Cloudy SCT024 51.1 46.9 53.1 50 86% 30.3 1025.3
02 20:56 NW 13 10.00 Overcast OVC035 51.1 46.9 86% 30.3 1025.1
02 19:56 NW 10 10.00 Overcast OVC037 52 46.9 83% 30.28 1024.5
02 18:56 Calm 10.00 Overcast OVC041 53.1 46 77% 30.28 1024.4
02 17:56 N 9 10.00 Overcast OVC033 53.1 46 77% 30.29 1024.7
02 16:56 W 3 10.00 Overcast BKN035 OVC042 52 45 77% 30.29 1024.8
02 15:56 SW 3 10.00 Overcast OVC031 53.1 44.1 53.1 48.9 72% 30.29 1024.9
02 14:56 SW 3 10.00 Overcast OVC033 52 42.1 69% 30.31 1025.3
02 13:56 SW 8 10.00 Overcast OVC037 50 44.1 80% 47 30.3 1025.2
02 12:56 SW 5 10.00 Overcast OVC039 51.1 45 80% 30.31 1025.4
02 11:56 W 7 10.00 Overcast OVC040 50 46 86% 48 30.31 1025.5
Date Time (akdt) Wind (mph) Vis. (mi.) Weather Sky Cond. Air Dwpt Max. Min. Relative Humidity Wind Chill (°F) Heat Index (°F) altimeter (in) sea level (mb) 1 hr 3 hr 6 hr
6 hour
Temperature (ºF) Pressure Precipitation (in)